SLI043 MMMX-MMQT
Flight info
| Callsign | SLI043 |
|---|---|
| Flight time | 0h 32m |
| Altitude | 26000 |
| Route | SEBON3A SEBON UT144 QET |
| Aircraft | E190/M-SDE3GILORVW/S |
Departure
| Time | 2026-04-25 22:47 |
|---|---|
| Airport | Mexico City Benito Juárez International Airport (MMMX) |
Arrival
| Time | 2026-04-25 23:19 |
|---|---|
| Airport | Querétaro Intercontinental Airport (MMQT) |
| Time | Latitude | Longitude | Altitude | Speed | Heading |
|---|---|---|---|---|---|
| 2026-04-25 22:31 | 19.42297 | -99.08091 | 7302 ft | 0 kts | 166° |
| 2026-04-25 22:38 | 19.42303 | -99.08093 | 7301 ft | 2 kts | 166° |
| 2026-04-25 22:38 | 19.42316 | -99.08096 | 7301 ft | 2 kts | 166° |
| 2026-04-25 22:38 | 19.42329 | -99.08100 | 7301 ft | 2 kts | 166° |
| 2026-04-25 22:39 | 19.42343 | -99.08103 | 7301 ft | 2 kts | 166° |
| 2026-04-25 22:39 | 19.42356 | -99.08107 | 7301 ft | 2 kts | 167° |
| 2026-04-25 22:39 | 19.42369 | -99.08110 | 7301 ft | 2 kts | 167° |
| 2026-04-25 22:39 | 19.42382 | -99.08113 | 7301 ft | 2 kts | 168° |
| 2026-04-25 22:40 | 19.42395 | -99.08116 | 7301 ft | 2 kts | 169° |
| 2026-04-25 22:40 | 19.42409 | -99.08118 | 7301 ft | 2 kts | 171° |
| 2026-04-25 22:40 | 19.42421 | -99.08120 | 7301 ft | 2 kts | 175° |
| 2026-04-25 22:40 | 19.42435 | -99.08121 | 7301 ft | 2 kts | 188° |
| 2026-04-25 22:41 | 19.42447 | -99.08116 | 7301 ft | 2 kts | 220° |
| 2026-04-25 22:41 | 19.42454 | -99.08110 | 7301 ft | 1 kts | 236° |
| 2026-04-25 22:41 | 19.42458 | -99.08103 | 7302 ft | 1 kts | 240° |
| 2026-04-25 22:41 | 19.42458 | -99.08102 | 7302 ft | 0 kts | 240° |
| 2026-04-25 22:42 | 19.42458 | -99.08103 | 7302 ft | 0 kts | 240° |
| 2026-04-25 22:42 | 19.42453 | -99.08112 | 7301 ft | 3 kts | 240° |
| 2026-04-25 22:42 | 19.42439 | -99.08138 | 7302 ft | 5 kts | 239° |
| 2026-04-25 22:42 | 19.42416 | -99.08179 | 7301 ft | 8 kts | 239° |
| 2026-04-25 22:43 | 19.42411 | -99.08217 | 7301 ft | 5 kts | 289° |
| 2026-04-25 22:43 | 19.42442 | -99.08241 | 7301 ft | 7 kts | 331° |
| 2026-04-25 22:43 | 19.42486 | -99.08266 | 7301 ft | 7 kts | 332° |
| 2026-04-25 22:43 | 19.42532 | -99.08292 | 7301 ft | 7 kts | 332° |
| 2026-04-25 22:44 | 19.42584 | -99.08321 | 7301 ft | 9 kts | 333° |
| 2026-04-25 22:44 | 19.42643 | -99.08353 | 7301 ft | 9 kts | 332° |
| 2026-04-25 22:44 | 19.42680 | -99.08375 | 7301 ft | 11 kts | 329° |
| 2026-04-25 22:44 | 19.42786 | -99.08439 | 7302 ft | 15 kts | 331° |
| 2026-04-25 22:45 | 19.42881 | -99.08494 | 7301 ft | 15 kts | 329° |
| 2026-04-25 22:45 | 19.42941 | -99.08531 | 7301 ft | 15 kts | 330° |
| 2026-04-25 22:45 | 19.43040 | -99.08549 | 7300 ft | 15 kts | 30° |
| 2026-04-25 22:45 | 19.43125 | -99.08397 | 7300 ft | 47 kts | 59° |
| 2026-04-25 22:46 | 19.43391 | -99.07924 | 7304 ft | 101 kts | 58° |
| 2026-04-25 22:46 | 19.43835 | -99.07130 | 7302 ft | 148 kts | 59° |
| 2026-04-25 22:46 | 19.44400 | -99.06054 | 7304 ft | 184 kts | 64° |
| 2026-04-25 22:46 | 19.45070 | -99.04833 | 7675 ft | 200 kts | 63° |
| 2026-04-25 22:47 | 19.45772 | -99.03511 | 8694 ft | 205 kts | 60° |
| 2026-04-25 22:47 | 19.46443 | -99.02290 | 9319 ft | 192 kts | 64° |
| 2026-04-25 22:47 | 19.46655 | -99.00781 | 9376 ft | 224 kts | 103° |
| 2026-04-25 22:47 | 19.46013 | -98.99277 | 9954 ft | 229 kts | 126° |
| 2026-04-25 22:48 | 19.44866 | -98.98072 | 10679 ft | 236 kts | 146° |
| 2026-04-25 22:48 | 19.43347 | -98.97367 | 11334 ft | 242 kts | 170° |
| 2026-04-25 22:48 | 19.41627 | -98.97334 | 11537 ft | 255 kts | 195° |
| 2026-04-25 22:48 | 19.40172 | -98.98263 | 12148 ft | 242 kts | 225° |
| 2026-04-25 22:49 | 19.39147 | -98.99667 | 12864 ft | 242 kts | 243° |
| 2026-04-25 22:49 | 19.38426 | -99.01284 | 13515 ft | 244 kts | 251° |
| 2026-04-25 22:49 | 19.37860 | -99.02993 | 14146 ft | 248 kts | 255° |
| 2026-04-25 22:49 | 19.37363 | -99.04760 | 14695 ft | 255 kts | 257° |
| 2026-04-25 22:50 | 19.36940 | -99.06592 | 15355 ft | 258 kts | 261° |
| 2026-04-25 22:50 | 19.36661 | -99.08488 | 16084 ft | 262 kts | 265° |
| 2026-04-25 22:50 | 19.36432 | -99.10405 | 16910 ft | 264 kts | 265° |
| 2026-04-25 22:50 | 19.36190 | -99.12316 | 17662 ft | 269 kts | 265° |
| 2026-04-25 22:51 | 19.35913 | -99.14365 | 17926 ft | 293 kts | 264° |
| 2026-04-25 22:51 | 19.35597 | -99.16573 | 18239 ft | 314 kts | 263° |
| 2026-04-25 22:51 | 19.35251 | -99.18928 | 18542 ft | 333 kts | 263° |
| 2026-04-25 22:51 | 19.34887 | -99.21381 | 19080 ft | 340 kts | 263° |
| 2026-04-25 22:52 | 19.34520 | -99.23869 | 19801 ft | 342 kts | 263° |
| 2026-04-25 22:52 | 19.34153 | -99.26354 | 20519 ft | 342 kts | 263° |
| 2026-04-25 22:52 | 19.33788 | -99.28821 | 21362 ft | 338 kts | 263° |
| 2026-04-25 22:52 | 19.33460 | -99.31317 | 21901 ft | 347 kts | 268° |
| 2026-04-25 22:53 | 19.33436 | -99.33900 | 22425 ft | 356 kts | 272° |
| 2026-04-25 22:53 | 19.33483 | -99.36562 | 22907 ft | 367 kts | 273° |
| 2026-04-25 22:53 | 19.33546 | -99.39296 | 23378 ft | 377 kts | 273° |
| 2026-04-25 22:53 | 19.33608 | -99.42094 | 23943 ft | 382 kts | 272° |
| 2026-04-25 22:54 | 19.33668 | -99.44922 | 24473 ft | 386 kts | 272° |
| 2026-04-25 22:54 | 19.33726 | -99.47768 | 25093 ft | 387 kts | 272° |
| 2026-04-25 22:54 | 19.33783 | -99.50623 | 25640 ft | 388 kts | 272° |
| 2026-04-25 22:54 | 19.33842 | -99.53483 | 26164 ft | 389 kts | 272° |
| 2026-04-25 22:55 | 19.33904 | -99.56380 | 26437 ft | 397 kts | 272° |
| 2026-04-25 22:55 | 19.33970 | -99.59362 | 26427 ft | 413 kts | 272° |
| 2026-04-25 22:55 | 19.34040 | -99.62450 | 26428 ft | 427 kts | 272° |
| 2026-04-25 22:55 | 19.34112 | -99.65652 | 26266 ft | 439 kts | 272° |
| 2026-04-25 22:56 | 19.34183 | -99.68899 | 26241 ft | 443 kts | 272° |
| 2026-04-25 22:56 | 19.34253 | -99.72167 | 26180 ft | 445 kts | 272° |
| 2026-04-25 22:56 | 19.34323 | -99.75452 | 26113 ft | 446 kts | 272° |
| 2026-04-25 22:56 | 19.34392 | -99.78739 | 26040 ft | 446 kts | 272° |
| 2026-04-25 22:57 | 19.34461 | -99.82025 | 25983 ft | 447 kts | 272° |
| 2026-04-25 22:57 | 19.34529 | -99.85267 | 25923 ft | 447 kts | 272° |
| 2026-04-25 22:57 | 19.34597 | -99.88557 | 25850 ft | 447 kts | 272° |
| 2026-04-25 22:57 | 19.34664 | -99.91848 | 25793 ft | 447 kts | 272° |
| 2026-04-25 22:58 | 19.34731 | -99.95137 | 25726 ft | 447 kts | 272° |
| 2026-04-25 22:58 | 19.34797 | -99.98422 | 25721 ft | 446 kts | 272° |
| 2026-04-25 22:58 | 19.34863 | -100.01707 | 25730 ft | 447 kts | 272° |
| 2026-04-25 22:58 | 19.34928 | -100.04997 | 25711 ft | 446 kts | 272° |
| 2026-04-25 22:59 | 19.35000 | -100.08277 | 25714 ft | 445 kts | 274° |
| 2026-04-25 22:59 | 19.35533 | -100.11497 | 25731 ft | 445 kts | 288° |
| 2026-04-25 22:59 | 19.36889 | -100.14435 | 25731 ft | 445 kts | 304° |
| 2026-04-25 22:59 | 19.38991 | -100.16838 | 25722 ft | 448 kts | 320° |
| 2026-04-25 23:00 | 19.41633 | -100.18588 | 25725 ft | 449 kts | 330° |
| 2026-04-25 23:00 | 19.44378 | -100.20147 | 25707 ft | 448 kts | 330° |
| 2026-04-25 23:00 | 19.47142 | -100.21694 | 25703 ft | 448 kts | 330° |
| 2026-04-25 23:00 | 19.49901 | -100.23239 | 25692 ft | 449 kts | 330° |
| 2026-04-25 23:01 | 19.52656 | -100.24783 | 25711 ft | 447 kts | 330° |
| 2026-04-25 23:01 | 19.55412 | -100.26330 | 25701 ft | 448 kts | 330° |
| 2026-04-25 23:01 | 19.58242 | -100.27720 | 25717 ft | 448 kts | 340° |
| 2026-04-25 23:01 | 19.61278 | -100.28201 | 25749 ft | 443 kts | 358° |
| 2026-04-25 23:02 | 19.64364 | -100.28079 | 25695 ft | 444 kts | 1° |
| 2026-04-25 23:02 | 19.67434 | -100.27884 | 25720 ft | 442 kts | 1° |
| 2026-04-25 23:02 | 19.70506 | -100.27688 | 25732 ft | 442 kts | 1° |
| 2026-04-25 23:02 | 19.73574 | -100.27498 | 25722 ft | 442 kts | 1° |
| 2026-04-25 23:03 | 19.76648 | -100.27311 | 25728 ft | 443 kts | 1° |
| 2026-04-25 23:03 | 19.79720 | -100.27124 | 25731 ft | 442 kts | 1° |
| 2026-04-25 23:03 | 19.82783 | -100.26938 | 25622 ft | 437 kts | 1° |
| 2026-04-25 23:03 | 19.85770 | -100.26751 | 25265 ft | 422 kts | 1° |
| 2026-04-25 23:04 | 19.88652 | -100.26569 | 24774 ft | 410 kts | 1° |
| 2026-04-25 23:04 | 19.91478 | -100.26393 | 24190 ft | 403 kts | 1° |
| 2026-04-25 23:04 | 19.94256 | -100.26224 | 23646 ft | 396 kts | 1° |
| 2026-04-25 23:04 | 19.96982 | -100.26062 | 23087 ft | 389 kts | 1° |
| 2026-04-25 23:05 | 19.99648 | -100.25907 | 22616 ft | 379 kts | 2° |
| 2026-04-25 23:05 | 20.02257 | -100.25755 | 22090 ft | 372 kts | 2° |
| 2026-04-25 23:05 | 20.04827 | -100.25537 | 21601 ft | 370 kts | 4° |
| 2026-04-25 23:05 | 20.07358 | -100.25240 | 21119 ft | 372 kts | 5° |
| 2026-04-25 23:06 | 20.09927 | -100.24936 | 20623 ft | 372 kts | 5° |
| 2026-04-25 23:06 | 20.12498 | -100.24646 | 20127 ft | 369 kts | 5° |
| 2026-04-25 23:06 | 20.15029 | -100.24367 | 19612 ft | 359 kts | 4° |
| 2026-04-25 23:06 | 20.17441 | -100.24107 | 19122 ft | 338 kts | 4° |
| 2026-04-25 23:07 | 20.19712 | -100.23864 | 18702 ft | 319 kts | 4° |
| 2026-04-25 23:07 | 20.21864 | -100.23633 | 18300 ft | 303 kts | 4° |
| 2026-04-25 23:07 | 20.23920 | -100.23415 | 17893 ft | 290 kts | 4° |
| 2026-04-25 23:07 | 20.25866 | -100.23205 | 17537 ft | 271 kts | 4° |
| 2026-04-25 23:08 | 20.27686 | -100.23010 | 17233 ft | 257 kts | 4° |
| 2026-04-25 23:08 | 20.29444 | -100.22824 | 16891 ft | 251 kts | 4° |
| 2026-04-25 23:08 | 20.31165 | -100.22641 | 16599 ft | 245 kts | 4° |
| 2026-04-25 23:08 | 20.32853 | -100.22462 | 16315 ft | 243 kts | 3° |
| 2026-04-25 23:09 | 20.34537 | -100.22286 | 16014 ft | 244 kts | 4° |
| 2026-04-25 23:09 | 20.36230 | -100.22104 | 15708 ft | 244 kts | 3° |
| 2026-04-25 23:09 | 20.37922 | -100.21923 | 15429 ft | 245 kts | 3° |
| 2026-04-25 23:09 | 20.39616 | -100.21765 | 15128 ft | 243 kts | 0° |
| 2026-04-25 23:10 | 20.41301 | -100.21649 | 14828 ft | 245 kts | 8° |
| 2026-04-25 23:10 | 20.42787 | -100.20788 | 14588 ft | 248 kts | 46° |
| 2026-04-25 23:10 | 20.43501 | -100.19130 | 14426 ft | 253 kts | 83° |
| 2026-04-25 23:10 | 20.43244 | -100.17276 | 14110 ft | 257 kts | 109° |
| 2026-04-25 23:11 | 20.42748 | -100.15438 | 13739 ft | 259 kts | 100° |
| 2026-04-25 23:11 | 20.42691 | -100.13504 | 13160 ft | 263 kts | 83° |
| 2026-04-25 23:11 | 20.43086 | -100.11641 | 12839 ft | 254 kts | 70° |
| 2026-04-25 23:11 | 20.43708 | -100.09905 | 12532 ft | 249 kts | 64° |
| 2026-04-25 23:12 | 20.44536 | -100.08303 | 12208 ft | 245 kts | 55° |
| 2026-04-25 23:12 | 20.45514 | -100.06820 | 11888 ft | 244 kts | 50° |
| 2026-04-25 23:12 | 20.46588 | -100.05426 | 11558 ft | 243 kts | 45° |
| 2026-04-25 23:12 | 20.47744 | -100.04122 | 11231 ft | 241 kts | 41° |
| 2026-04-25 23:13 | 20.48980 | -100.02935 | 10915 ft | 238 kts | 36° |
| 2026-04-25 23:13 | 20.50291 | -100.01866 | 10627 ft | 237 kts | 31° |
| 2026-04-25 23:13 | 20.51680 | -100.00916 | 10276 ft | 237 kts | 26° |
| 2026-04-25 23:13 | 20.53128 | -100.00095 | 9971 ft | 234 kts | 22° |
| 2026-04-25 23:14 | 20.54612 | -99.99414 | 9657 ft | 231 kts | 16° |
| 2026-04-25 23:14 | 20.56122 | -99.98876 | 9339 ft | 225 kts | 7° |
| 2026-04-25 23:14 | 20.57588 | -99.99028 | 9182 ft | 208 kts | 329° |
| 2026-04-25 23:14 | 20.58505 | -100.00139 | 9051 ft | 203 kts | 288° |
| 2026-04-25 23:15 | 20.58697 | -100.01639 | 8874 ft | 208 kts | 275° |
| 2026-04-25 23:15 | 20.58882 | -100.03181 | 8648 ft | 208 kts | 278° |
| 2026-04-25 23:15 | 20.59010 | -100.04650 | 8460 ft | 187 kts | 276° |
| 2026-04-25 23:15 | 20.59215 | -100.05960 | 8223 ft | 170 kts | 282° |
| 2026-04-25 23:16 | 20.59449 | -100.07102 | 8156 ft | 143 kts | 283° |
| 2026-04-25 23:16 | 20.59661 | -100.08102 | 8084 ft | 136 kts | 282° |
| 2026-04-25 23:16 | 20.59892 | -100.09064 | 7936 ft | 134 kts | 284° |
| 2026-04-25 23:16 | 20.60156 | -100.10026 | 7817 ft | 137 kts | 282° |
| 2026-04-25 23:17 | 20.60342 | -100.11023 | 7724 ft | 136 kts | 280° |
| 2026-04-25 23:17 | 20.60520 | -100.12030 | 7599 ft | 144 kts | 281° |
| 2026-04-25 23:17 | 20.60723 | -100.13074 | 7429 ft | 146 kts | 283° |
| 2026-04-25 23:17 | 20.60908 | -100.14083 | 7333 ft | 135 kts | 282° |
| 2026-04-25 23:18 | 20.61100 | -100.15082 | 7115 ft | 137 kts | 282° |
| 2026-04-25 23:18 | 20.61288 | -100.16096 | 6827 ft | 141 kts | 280° |
| 2026-04-25 23:18 | 20.61469 | -100.17109 | 6648 ft | 131 kts | 282° |
| 2026-04-25 23:18 | 20.61621 | -100.17923 | 6632 ft | 94 kts | 280° |
| 2026-04-25 23:19 | 20.61719 | -100.18452 | 6632 ft | 50 kts | 282° |
| 2026-04-25 23:19 | 20.61835 | -100.18637 | 6634 ft | 17 kts | 322° |
| 2026-04-25 23:19 | 20.61937 | -100.18698 | 6631 ft | 17 kts | 348° |
| 2026-04-25 23:19 | 20.62008 | -100.18689 | 6630 ft | 6 kts | 11° |
| 2026-04-25 23:20 | 20.62034 | -100.18684 | 6629 ft | 0 kts | 11° |
| 2026-04-25 23:21 | 20.62043 | -100.18682 | 6628 ft | 2 kts | 11° |
| 2026-04-25 23:21 | 20.62074 | -100.18681 | 6629 ft | 6 kts | 340° |
| 2026-04-25 23:21 | 20.62100 | -100.18739 | 6629 ft | 10 kts | 285° |
| 2026-04-25 23:21 | 20.62151 | -100.18778 | 6627 ft | 9 kts | 351° |
| 2026-04-25 23:22 | 20.62197 | -100.18770 | 6627 ft | 0 kts | 10° |